Quick Links (Output Below):   Max & Min Temps   /   Climate Reports   /   Zone Forecasts
River Forecasts   /   Forestry Forecasts   /   Aviation Forecasts   /   Radars   /   Features

Terminal Aerodrome Forecast (Mountain Home)

Pick a Site:
Arkadelphia | El Dorado | Fayetteville | Fort Smith | Harrison | Highfill | Hot Springs | Jonesboro
Little Rock | Monticello | Mountain Home | Pine Bluff | Texarkana
 Forecast 

KBPK 312337Z 0100/0124 15007KT P6SM VCSH SCT040 OVC250
     FM010600 16005KT P6SM VCSH SCT020 BKN040 OVC250
     FM010900 VRB05KT 6SM BR VCTS SCT020CB BKN040 OVC100
      TEMPO 0109/0112 4SM -TSRA BR BKN020CB OVC040=


 Latest METARs (Observations) 
How to Decode METARs
01Z KBPK 010053Z AUTO 00000KT 4SM BR FEW041 SCT055 BKN080 24/22 A2990
         RMK AO2 SLP117 T02390217
         
00Z KBPK 312353Z AUTO 00000KT 9SM FEW041 FEW090 25/21 A2989 RMK AO2
         SLP113 T02500206 10267 20233 53007
         
***** Today's Observations (Above) *****


23Z KBPK 312253Z AUTO 16004KT 10SM CLR 25/19 A2987 RMK AO2 SLP107
         T02500194
         
22Z KBPK 312153Z AUTO 17007KT 10SM CLR 26/19 A2987 RMK AO2 SLP105
         T02610194
         
21Z KBPK 312053Z AUTO 14007KT 120V180 10SM CLR 26/19 A2987 RMK AO2
         PRESFR SLP105 T02610194 58030
         
20Z KBPK 311953Z AUTO 11003KT 10SM FEW028 SCT034 BKN042 26/19 A2992
         RMK AO2 SLP123 T02610194
         
19Z KBPK 311853Z AUTO 00000KT 10SM FEW024 SCT044 SCT085 25/18 A2994
         RMK AO2 SLP129 T02500183
         
18Z KBPK 311753Z AUTO 16005KT 10SM FEW021 SCT043 OVC050 24/19 A2996
         RMK AO2 RAB38E51 SLP137 P0000 60000 T02390189 10239 20183
         56009
         
17Z KBPK 311653Z AUTO VRB05KT 10SM BKN021 24/19 A2997 RMK AO2 SLP139
         T02390189
         
16Z KBPK 311553Z AUTO 11005KT 10SM SCT018 SCT050 BKN065 23/18 A2998
         RMK AO2 SLP143 T02280183
         
***** Yesterday's Observations (Above) *****


Back to Main Page
http://www.srh.noaa.gov/lzk/qfcst.php

USA.gov is the U.S. government's official web portal to all federal, state and local government web resources and services.